<?xml version="1.0" encoding="UTF-8" standalone="no" ?>
<gpx xmlns="http://www.topografix.com/GPX/1/1" creator="MapSource 6.16.3" version="1.1" xmlns:xsi="http://www.w3.org/2001/XMLSchema-instance" xsi:schemaLocation="http://www.topografix.com/GPX/1/1 http://www.topografix.com/GPX/1/1/gpx.xsd">

  <metadata>
    <link href="http://www.garmin.com">
      <text>Garmin International</text>
    </link>
    <time>2016-01-15T10:05:46Z</time>
    <bounds maxlat="51.627615932375193" maxlon="6.035144878551364" minlat="51.568089835345745" minlon="5.977682070806623"/>
  </metadata>

  <wpt lat="51.596487890928984" lon="6.010403176769614">
    <time>2015-12-21T15:01:43Z</time>
    <name>Start</name>
    <cmt>Start Fietstocht door het Verboden gebied</cmt>
    <desc>Start Fietstocht door het Verboden gebied</desc>
    <sym>Bike Trail</sym>
    <extensions>
      <gpxx:WaypointExtension xmlns:gpxx="http://www.garmin.com/xmlschemas/GpxExtensions/v3">
        <gpxx:DisplayMode>SymbolAndName</gpxx:DisplayMode>
      </gpxx:WaypointExtension>
    </extensions>
  </wpt>

  <trk>
    <name>Fietstocht door het Verboden Gebied</name>
    <desc>Fietstocht door het Verboden Gebied</desc>
    <trkseg>
      <trkpt lat="51.596465427428484" lon="6.010402925312519">
        <ele>16.126991</ele>
        <time>2015-12-31T23:00:01Z</time>
      </trkpt>
      <trkpt lat="51.596411028876901" lon="6.007948620244861">
        <ele>15.799374</ele>
        <time>2015-12-31T23:00:02Z</time>
      </trkpt>
      <trkpt lat="51.596547905355692" lon="6.007553497329354">
        <ele>16.160387</ele>
        <time>2015-12-31T23:00:03Z</time>
      </trkpt>
      <trkpt lat="51.596551928669214" lon="6.006795940920711">
        <ele>16.675207</ele>
        <time>2015-12-31T23:00:04Z</time>
      </trkpt>
      <trkpt lat="51.596227381378412" lon="6.004410116001964">
        <ele>16.785924999999999</ele>
        <time>2015-12-31T23:00:05Z</time>
      </trkpt>
      <trkpt lat="51.594988284632564" lon="6.000713026151061">
        <ele>14</ele>
        <time>2015-12-31T23:00:06Z</time>
      </trkpt>
      <trkpt lat="51.594818718731403" lon="5.99876238964498">
        <ele>16.237888000000002</ele>
        <time>2015-12-31T23:00:07Z</time>
      </trkpt>
      <trkpt lat="51.594010535627604" lon="5.998607324436307">
        <ele>15.147639</ele>
        <time>2015-12-31T23:00:08Z</time>
      </trkpt>
      <trkpt lat="51.593067487701774" lon="5.998450331389904">
        <ele>15.960158</ele>
        <time>2015-12-31T23:00:09Z</time>
      </trkpt>
      <trkpt lat="51.591879185289145" lon="5.997929312288761">
        <ele>16.981912999999999</ele>
        <time>2015-12-31T23:00:10Z</time>
      </trkpt>
      <trkpt lat="51.591048203408718" lon="5.997845996171236">
        <ele>17.352931999999999</ele>
        <time>2015-12-31T23:00:11Z</time>
      </trkpt>
      <trkpt lat="51.587357735261321" lon="5.998806562274694">
        <ele>17.812601000000001</ele>
        <time>2015-12-31T23:00:12Z</time>
      </trkpt>
      <trkpt lat="51.584476958960295" lon="5.999633688479662">
        <ele>16.453979</ele>
        <time>2015-12-31T23:00:13Z</time>
      </trkpt>
      <trkpt lat="51.584139000624418" lon="5.999809540808201">
        <ele>15.434424</ele>
        <time>2015-12-31T23:00:14Z</time>
      </trkpt>
      <trkpt lat="51.583888968452811" lon="6.000347239896655">
        <ele>15</ele>
        <time>2015-12-31T23:00:15Z</time>
      </trkpt>
      <trkpt lat="51.583682438358665" lon="6.001174114644527">
        <ele>15</ele>
        <time>2015-12-31T23:00:16Z</time>
      </trkpt>
      <trkpt lat="51.58328983001411" lon="6.003188788890839">
        <ele>16.799430999999998</ele>
        <time>2015-12-31T23:00:17Z</time>
      </trkpt>
      <trkpt lat="51.583085730671883" lon="6.003546779975295">
        <ele>16.979793999999998</ele>
        <time>2015-12-31T23:00:18Z</time>
      </trkpt>
      <trkpt lat="51.58265708014369" lon="6.00386562757194">
        <ele>16.775404000000002</ele>
        <time>2015-12-31T23:00:19Z</time>
      </trkpt>
      <trkpt lat="51.57962853088975" lon="6.0028868727386">
        <ele>13.893093</ele>
        <time>2015-12-31T23:00:20Z</time>
      </trkpt>
      <trkpt lat="51.579291159287095" lon="6.002918388694525">
        <ele>13.484154</ele>
        <time>2015-12-31T23:00:21Z</time>
      </trkpt>
      <trkpt lat="51.575436238199472" lon="6.005246629938483">
        <ele>15.686799000000001</ele>
        <time>2015-12-31T23:00:22Z</time>
      </trkpt>
      <trkpt lat="51.574648758396506" lon="6.005416279658675">
        <ele>16.000783999999999</ele>
        <time>2015-12-31T23:00:23Z</time>
      </trkpt>
      <trkpt lat="51.574401995167136" lon="6.0053407587111">
        <ele>16.112342999999999</ele>
        <time>2015-12-31T23:00:24Z</time>
      </trkpt>
      <trkpt lat="51.574044171720743" lon="6.00501143373549">
        <ele>15.784877</ele>
        <time>2015-12-31T23:00:25Z</time>
      </trkpt>
      <trkpt lat="51.574159422889352" lon="6.00447197444737">
        <ele>15.756683000000001</ele>
        <time>2015-12-31T23:00:26Z</time>
      </trkpt>
      <trkpt lat="51.574185322970152" lon="6.003823215141892">
        <ele>15.755625</ele>
        <time>2015-12-31T23:00:27Z</time>
      </trkpt>
      <trkpt lat="51.574098402634263" lon="6.00324503146112">
        <ele>15.795897</ele>
        <time>2015-12-31T23:00:28Z</time>
      </trkpt>
      <trkpt lat="51.5733384154737" lon="6.00247741676867">
        <ele>16.059452</ele>
        <time>2015-12-31T23:00:29Z</time>
      </trkpt>
      <trkpt lat="51.572641795501113" lon="6.002468029037118">
        <ele>17.278891000000002</ele>
        <time>2015-12-31T23:00:30Z</time>
      </trkpt>
      <trkpt lat="51.570074334740639" lon="6.003551222383976">
        <ele>14.694448</ele>
        <time>2015-12-31T23:00:31Z</time>
      </trkpt>
      <trkpt lat="51.571448799222708" lon="6.007103892043233">
        <ele>15.038138999999999</ele>
        <time>2015-12-31T23:00:32Z</time>
      </trkpt>
      <trkpt lat="51.572376005351543" lon="6.00599848665297">
        <ele>14.762999000000001</ele>
        <time>2015-12-31T23:00:33Z</time>
      </trkpt>
      <trkpt lat="51.5725112054497" lon="6.005928162485361">
        <ele>14.690170999999999</ele>
        <time>2015-12-31T23:00:34Z</time>
      </trkpt>
      <trkpt lat="51.572736091911793" lon="6.005895221605897">
        <ele>14.829803</ele>
        <time>2015-12-31T23:00:35Z</time>
      </trkpt>
      <trkpt lat="51.573477135971189" lon="6.006013490259647">
        <ele>16.566931</ele>
        <time>2015-12-31T23:00:36Z</time>
      </trkpt>
      <trkpt lat="51.573383761569858" lon="6.006661327555776">
        <ele>16.906556999999999</ele>
        <time>2015-12-31T23:00:37Z</time>
      </trkpt>
      <trkpt lat="51.573334978893399" lon="6.007382003590465">
        <ele>16.405197000000001</ele>
        <time>2015-12-31T23:00:38Z</time>
      </trkpt>
      <trkpt lat="51.573565565049648" lon="6.010522618889809">
        <ele>17.241192000000002</ele>
        <time>2015-12-31T23:00:39Z</time>
      </trkpt>
      <trkpt lat="51.573539497330785" lon="6.011207504197955">
        <ele>18.420052999999999</ele>
        <time>2015-12-31T23:00:40Z</time>
      </trkpt>
      <trkpt lat="51.573376469314098" lon="6.012287177145481">
        <ele>18.539121999999999</ele>
        <time>2015-12-31T23:00:41Z</time>
      </trkpt>
      <trkpt lat="51.572433672845364" lon="6.012093890458345">
        <ele>17.820174999999999</ele>
        <time>2015-12-31T23:00:42Z</time>
      </trkpt>
      <trkpt lat="51.568406336009502" lon="6.017195284366608">
        <ele>15.437675</ele>
        <time>2015-12-31T23:00:43Z</time>
      </trkpt>
      <trkpt lat="51.568089835345745" lon="6.017551515251398">
        <ele>16.078661</ele>
        <time>2015-12-31T23:00:44Z</time>
      </trkpt>
      <trkpt lat="51.569234635680914" lon="6.021966682747006">
        <ele>17.8934</ele>
        <time>2015-12-31T23:00:45Z</time>
      </trkpt>
      <trkpt lat="51.570102917030454" lon="6.023457236588001">
        <ele>15.200108999999999</ele>
        <time>2015-12-31T23:00:46Z</time>
      </trkpt>
      <trkpt lat="51.570144910365343" lon="6.023998707532883">
        <ele>16.025815999999999</ele>
        <time>2015-12-31T23:00:47Z</time>
      </trkpt>
      <trkpt lat="51.569908289238811" lon="6.026195101439953">
        <ele>17.973535999999999</ele>
        <time>2015-12-31T23:00:48Z</time>
      </trkpt>
      <trkpt lat="51.570214228704572" lon="6.027786070480943">
        <ele>17.850773</ele>
        <time>2015-12-31T23:00:49Z</time>
      </trkpt>
      <trkpt lat="51.570346495136619" lon="6.028256798163056">
        <ele>18.337084000000001</ele>
        <time>2015-12-31T23:00:50Z</time>
      </trkpt>
      <trkpt lat="51.570230405777693" lon="6.028940258547664">
        <ele>20.110416000000001</ele>
        <time>2015-12-31T23:00:51Z</time>
      </trkpt>
      <trkpt lat="51.570249516516924" lon="6.029553562402725">
        <ele>19.985111</ele>
        <time>2015-12-31T23:00:52Z</time>
      </trkpt>
      <trkpt lat="51.571244699880481" lon="6.032488569617271">
        <ele>18.062117000000001</ele>
        <time>2015-12-31T23:00:53Z</time>
      </trkpt>
      <trkpt lat="51.57160378061235" lon="6.032565766945481">
        <ele>18.512756</ele>
        <time>2015-12-31T23:00:54Z</time>
      </trkpt>
      <trkpt lat="51.572361337020993" lon="6.033766558393836">
        <ele>17.497046999999998</ele>
        <time>2015-12-31T23:00:55Z</time>
      </trkpt>
      <trkpt lat="51.572915464639664" lon="6.035144878551364">
        <ele>18.109573000000001</ele>
        <time>2015-12-31T23:00:56Z</time>
      </trkpt>
      <trkpt lat="51.575350491330028" lon="6.033700760453939">
        <ele>16.126123</ele>
        <time>2015-12-31T23:00:57Z</time>
      </trkpt>
      <trkpt lat="51.576368222013116" lon="6.032525114715099">
        <ele>17.163902</ele>
        <time>2015-12-31T23:00:58Z</time>
      </trkpt>
      <trkpt lat="51.577383941039443" lon="6.031709890812635">
        <ele>16.863662999999999</ele>
        <time>2015-12-31T23:00:59Z</time>
      </trkpt>
      <trkpt lat="51.579346898943186" lon="6.03025889955461">
        <ele>16.600227</ele>
        <time>2015-12-31T23:01:00Z</time>
      </trkpt>
      <trkpt lat="51.580901658162475" lon="6.029487261548638">
        <ele>16.337070000000001</ele>
        <time>2015-12-31T23:01:01Z</time>
      </trkpt>
      <trkpt lat="51.581509178504348" lon="6.029351474717259">
        <ele>16.553633000000001</ele>
        <time>2015-12-31T23:01:02Z</time>
      </trkpt>
      <trkpt lat="51.58308120444417" lon="6.029553981497884">
        <ele>16.163440999999999</ele>
        <time>2015-12-31T23:01:03Z</time>
      </trkpt>
      <trkpt lat="51.584477880969644" lon="6.02892441675067">
        <ele>20.208431000000001</ele>
        <time>2015-12-31T23:01:04Z</time>
      </trkpt>
      <trkpt lat="51.587116168811917" lon="6.027266141027212">
        <ele>15.131221999999999</ele>
        <time>2015-12-31T23:01:05Z</time>
      </trkpt>
      <trkpt lat="51.588694481179118" lon="6.02631420828402">
        <ele>12.981325</ele>
        <time>2015-12-31T23:01:06Z</time>
      </trkpt>
      <trkpt lat="51.590635478496552" lon="6.02475400082767">
        <ele>13.662141</ele>
        <time>2015-12-31T23:01:07Z</time>
      </trkpt>
      <trkpt lat="51.591626303270459" lon="6.028519989922643">
        <ele>10.671151999999999</ele>
        <time>2015-12-31T23:01:08Z</time>
      </trkpt>
      <trkpt lat="51.593097494915128" lon="6.026592403650284">
        <ele>11.789054999999999</ele>
        <time>2015-12-31T23:01:09Z</time>
      </trkpt>
      <trkpt lat="51.593549530953169" lon="6.026129722595215">
        <ele>10.636555</ele>
        <time>2015-12-31T23:01:10Z</time>
      </trkpt>
      <trkpt lat="51.59645788371563" lon="6.024366421625018">
        <ele>9.930949</ele>
        <time>2015-12-31T23:01:11Z</time>
      </trkpt>
      <trkpt lat="51.596864406019449" lon="6.02401128038764">
        <ele>10.902583999999999</ele>
        <time>2015-12-31T23:01:12Z</time>
      </trkpt>
      <trkpt lat="51.597068840637803" lon="6.023617163300514">
        <ele>11.901693</ele>
        <time>2015-12-31T23:01:13Z</time>
      </trkpt>
      <trkpt lat="51.597094740718603" lon="6.02296806871891">
        <ele>11.98246</ele>
        <time>2015-12-31T23:01:14Z</time>
      </trkpt>
      <trkpt lat="51.5965008828789" lon="6.020578388124704">
        <ele>14.832921000000001</ele>
        <time>2015-12-31T23:01:15Z</time>
      </trkpt>
      <trkpt lat="51.5961261279881" lon="6.019238205626607">
        <ele>15.021478999999999</ele>
        <time>2015-12-31T23:01:16Z</time>
      </trkpt>
      <trkpt lat="51.595163466408849" lon="6.014353903010488">
        <ele>16.855808</ele>
        <time>2015-12-31T23:01:17Z</time>
      </trkpt>
      <trkpt lat="51.597195491194725" lon="6.012577777728438">
        <ele>17.218328</ele>
        <time>2015-12-31T23:01:18Z</time>
      </trkpt>
      <trkpt lat="51.598188914358616" lon="6.015911092981696">
        <ele>14.258201</ele>
        <time>2015-12-31T23:01:19Z</time>
      </trkpt>
      <trkpt lat="51.598324282094836" lon="6.015804726630449">
        <ele>13.798408999999999</ele>
        <time>2015-12-31T23:01:20Z</time>
      </trkpt>
      <trkpt lat="51.599907707422972" lon="6.013877978548408">
        <ele>14.318783</ele>
        <time>2015-12-31T23:01:21Z</time>
      </trkpt>
      <trkpt lat="51.600555125623941" lon="6.014680797234178">
        <ele>14.881992</ele>
        <time>2015-12-31T23:01:22Z</time>
      </trkpt>
      <trkpt lat="51.60084430128336" lon="6.015226040035486">
        <ele>13.406507</ele>
        <time>2015-12-31T23:01:23Z</time>
      </trkpt>
      <trkpt lat="51.601551817730069" lon="6.017400892451406">
        <ele>13.344087</ele>
        <time>2015-12-31T23:01:24Z</time>
      </trkpt>
      <trkpt lat="51.602132515981793" lon="6.018058536574245">
        <ele>13.246776000000001</ele>
        <time>2015-12-31T23:01:25Z</time>
      </trkpt>
      <trkpt lat="51.602420015260577" lon="6.01892857812345">
        <ele>11.980632999999999</ele>
        <time>2015-12-31T23:01:26Z</time>
      </trkpt>
      <trkpt lat="51.602554628625512" lon="6.018966464325786">
        <ele>11.668839</ele>
        <time>2015-12-31T23:01:27Z</time>
      </trkpt>
      <trkpt lat="51.603228282183409" lon="6.019048020243645">
        <ele>11.162523999999999</ele>
        <time>2015-12-31T23:01:28Z</time>
      </trkpt>
      <trkpt lat="51.604131096974015" lon="6.022488875314593">
        <ele>11.905587000000001</ele>
        <time>2015-12-31T23:01:29Z</time>
      </trkpt>
      <trkpt lat="51.609118413180113" lon="6.02277503348887">
        <ele>13.203620000000001</ele>
        <time>2015-12-31T23:01:30Z</time>
      </trkpt>
      <trkpt lat="51.612825812771916" lon="6.022862875834107">
        <ele>11.812756</ele>
        <time>2015-12-31T23:01:31Z</time>
      </trkpt>
      <trkpt lat="51.613792581483722" lon="6.022768076509237">
        <ele>14.169656</ele>
        <time>2015-12-31T23:01:32Z</time>
      </trkpt>
      <trkpt lat="51.613952927291393" lon="6.022228868678212">
        <ele>14.276579</ele>
        <time>2015-12-31T23:01:33Z</time>
      </trkpt>
      <trkpt lat="51.613888805732131" lon="6.021614391356707">
        <ele>13.029442</ele>
        <time>2015-12-31T23:01:34Z</time>
      </trkpt>
      <trkpt lat="51.613580016419291" lon="6.020527174696326">
        <ele>10.962427999999999</ele>
        <time>2015-12-31T23:01:35Z</time>
      </trkpt>
      <trkpt lat="51.613738937303424" lon="6.020240597426891">
        <ele>10.836493000000001</ele>
        <time>2015-12-31T23:01:36Z</time>
      </trkpt>
      <trkpt lat="51.613319087773561" lon="6.018899325281382">
        <ele>11.084619999999999</ele>
        <time>2015-12-31T23:01:37Z</time>
      </trkpt>
      <trkpt lat="51.61376953125" lon="6.018724981695414">
        <ele>11.005407999999999</ele>
        <time>2015-12-31T23:01:38Z</time>
      </trkpt>
      <trkpt lat="51.612336896359921" lon="6.01347154006362">
        <ele>17.748777</ele>
        <time>2015-12-31T23:01:39Z</time>
      </trkpt>
      <trkpt lat="51.612340416759253" lon="6.012821774929762">
        <ele>16.486977</ele>
        <time>2015-12-31T23:01:40Z</time>
      </trkpt>
      <trkpt lat="51.612207479774952" lon="6.012459089979529">
        <ele>15.039541</ele>
        <time>2015-12-31T23:01:41Z</time>
      </trkpt>
      <trkpt lat="51.61220982670784" lon="6.012025997042656">
        <ele>14.072164000000001</ele>
        <time>2015-12-31T23:01:42Z</time>
      </trkpt>
      <trkpt lat="51.613316992297769" lon="6.010886058211327">
        <ele>13.592681000000001</ele>
        <time>2015-12-31T23:01:43Z</time>
      </trkpt>
      <trkpt lat="51.613569706678391" lon="6.009842762723565">
        <ele>11.523315999999999</ele>
        <time>2015-12-31T23:01:44Z</time>
      </trkpt>
      <trkpt lat="51.6144741140306" lon="6.008808435872197">
        <ele>11.789769</ele>
        <time>2015-12-31T23:01:45Z</time>
      </trkpt>
      <trkpt lat="51.614873427897692" lon="6.009788364171982">
        <ele>17.58408</ele>
        <time>2015-12-31T23:01:46Z</time>
      </trkpt>
      <trkpt lat="51.616409998387098" lon="6.012408463284373">
        <ele>14.752003</ele>
        <time>2015-12-31T23:01:47Z</time>
      </trkpt>
      <trkpt lat="51.616723062470555" lon="6.012701578438282">
        <ele>12.805481</ele>
        <time>2015-12-31T23:01:48Z</time>
      </trkpt>
      <trkpt lat="51.617557229474187" lon="6.012207632884383">
        <ele>11.245647999999999</ele>
        <time>2015-12-31T23:01:49Z</time>
      </trkpt>
      <trkpt lat="51.61920896731317" lon="6.010064296424389">
        <ele>12.41628</ele>
        <time>2015-12-31T23:01:50Z</time>
      </trkpt>
      <trkpt lat="51.619842387735844" lon="6.009278828278184">
        <ele>11.753961</ele>
        <time>2015-12-31T23:01:51Z</time>
      </trkpt>
      <trkpt lat="51.62051897495985" lon="6.008818661794066">
        <ele>11.113251</ele>
        <time>2015-12-31T23:01:52Z</time>
      </trkpt>
      <trkpt lat="51.620696922764182" lon="6.009182184934616">
        <ele>11.533598</ele>
        <time>2015-12-31T23:01:53Z</time>
      </trkpt>
      <trkpt lat="51.621486414223909" lon="6.008615316823125">
        <ele>12.432387</ele>
        <time>2015-12-31T23:01:54Z</time>
      </trkpt>
      <trkpt lat="51.62167358212173" lon="6.007209923118353">
        <ele>11.562417</ele>
        <time>2015-12-31T23:01:55Z</time>
      </trkpt>
      <trkpt lat="51.620725588873029" lon="6.003731265664101">
        <ele>11.602792000000001</ele>
        <time>2015-12-31T23:01:56Z</time>
      </trkpt>
      <trkpt lat="51.621202602982521" lon="6.002762988209724">
        <ele>13.264436999999999</ele>
        <time>2015-12-31T23:01:57Z</time>
      </trkpt>
      <trkpt lat="51.621521702036262" lon="6.001900909468532">
        <ele>14.302405</ele>
        <time>2015-12-31T23:01:58Z</time>
      </trkpt>
      <trkpt lat="51.622267859056592" lon="6.001008404418826">
        <ele>12.999999000000001</ele>
        <time>2015-12-31T23:01:59Z</time>
      </trkpt>
      <trkpt lat="51.622495679184794" lon="6.000433824956417">
        <ele>12.999999000000001</ele>
        <time>2015-12-31T23:02:00Z</time>
      </trkpt>
      <trkpt lat="51.623176038265228" lon="5.999251641333103">
        <ele>14.722136000000001</ele>
        <time>2015-12-31T23:02:01Z</time>
      </trkpt>
      <trkpt lat="51.623806525021791" lon="5.999007392674685">
        <ele>15.603954</ele>
        <time>2015-12-31T23:02:02Z</time>
      </trkpt>
      <trkpt lat="51.624486800283194" lon="5.997825125232339">
        <ele>13.705776</ele>
        <time>2015-12-31T23:02:03Z</time>
      </trkpt>
      <trkpt lat="51.624310193583369" lon="5.997208887711167">
        <ele>12.709332</ele>
        <time>2015-12-31T23:02:04Z</time>
      </trkpt>
      <trkpt lat="51.626485465094447" lon="5.993735929951072">
        <ele>12.896635</ele>
        <time>2015-12-31T23:02:05Z</time>
      </trkpt>
      <trkpt lat="51.627615932375193" lon="5.992415025830269">
        <ele>12.607234</ele>
        <time>2015-12-31T23:02:06Z</time>
      </trkpt>
      <trkpt lat="51.627573017030954" lon="5.992017220705748">
        <ele>11.279363</ele>
        <time>2015-12-31T23:02:07Z</time>
      </trkpt>
      <trkpt lat="51.625967798754573" lon="5.989540787413716">
        <ele>11.448269</ele>
        <time>2015-12-31T23:02:08Z</time>
      </trkpt>
      <trkpt lat="51.625745594501495" lon="5.989032341167331">
        <ele>12.289115000000001</ele>
        <time>2015-12-31T23:02:09Z</time>
      </trkpt>
      <trkpt lat="51.624257974326611" lon="5.985510600730777">
        <ele>13.849679999999999</ele>
        <time>2015-12-31T23:02:10Z</time>
      </trkpt>
      <trkpt lat="51.6224246006459" lon="5.983681418001652">
        <ele>15.337308</ele>
        <time>2015-12-31T23:02:11Z</time>
      </trkpt>
      <trkpt lat="51.621767627075315" lon="5.98471968434751">
        <ele>14.480041999999999</ele>
        <time>2015-12-31T23:02:12Z</time>
      </trkpt>
      <trkpt lat="51.620841594412923" lon="5.985646219924092">
        <ele>16.423096000000001</ele>
        <time>2015-12-31T23:02:13Z</time>
      </trkpt>
      <trkpt lat="51.62011681124568" lon="5.986755816265941">
        <ele>13.19966</ele>
        <time>2015-12-31T23:02:14Z</time>
      </trkpt>
      <trkpt lat="51.618906296789646" lon="5.990566397085786">
        <ele>14.493671000000001</ele>
        <time>2015-12-31T23:02:15Z</time>
      </trkpt>
      <trkpt lat="51.61864997819066" lon="5.992331877350807">
        <ele>13.682338</ele>
        <time>2015-12-31T23:02:16Z</time>
      </trkpt>
      <trkpt lat="51.617837520316243" lon="5.993007039651275">
        <ele>13.483917</ele>
        <time>2015-12-31T23:02:17Z</time>
      </trkpt>
      <trkpt lat="51.617473158985376" lon="5.993940699845552">
        <ele>12.899464</ele>
        <time>2015-12-31T23:02:18Z</time>
      </trkpt>
      <trkpt lat="51.615624027326703" lon="5.995179377496243">
        <ele>14.21508</ele>
        <time>2015-12-31T23:02:19Z</time>
      </trkpt>
      <trkpt lat="51.614428097382188" lon="5.996138099581003">
        <ele>13.0718</ele>
        <time>2015-12-31T23:02:20Z</time>
      </trkpt>
      <trkpt lat="51.613433584570885" lon="5.997243672609329">
        <ele>13.025829999999999</ele>
        <time>2015-12-31T23:02:21Z</time>
      </trkpt>
      <trkpt lat="51.613025134429336" lon="5.99799619987607">
        <ele>13.910696</ele>
        <time>2015-12-31T23:02:22Z</time>
      </trkpt>
      <trkpt lat="51.61255138926208" lon="5.998350838199258">
        <ele>15.287113</ele>
        <time>2015-12-31T23:02:23Z</time>
      </trkpt>
      <trkpt lat="51.612346284091473" lon="5.998889459297061">
        <ele>15.05406</ele>
        <time>2015-12-31T23:02:24Z</time>
      </trkpt>
      <trkpt lat="51.61200849339366" lon="5.999029269441962">
        <ele>15.168078</ele>
        <time>2015-12-31T23:02:25Z</time>
      </trkpt>
      <trkpt lat="51.610514419153333" lon="6.001138659194112">
        <ele>15</ele>
        <time>2015-12-31T23:02:26Z</time>
      </trkpt>
      <trkpt lat="51.609851410612464" lon="5.999000268056989">
        <ele>15.188435</ele>
        <time>2015-12-31T23:02:27Z</time>
      </trkpt>
      <trkpt lat="51.609141128137708" lon="5.997294466942549">
        <ele>14.645576999999999</ele>
        <time>2015-12-31T23:02:28Z</time>
      </trkpt>
      <trkpt lat="51.608735863119364" lon="5.997433438897133">
        <ele>14.669193</ele>
        <time>2015-12-31T23:02:29Z</time>
      </trkpt>
      <trkpt lat="51.608579372987151" lon="5.997287007048726">
        <ele>14.521148</ele>
        <time>2015-12-31T23:02:30Z</time>
      </trkpt>
      <trkpt lat="51.60814787261188" lon="5.998147409409285">
        <ele>16.210615000000001</ele>
        <time>2015-12-31T23:02:31Z</time>
      </trkpt>
      <trkpt lat="51.607924327254295" lon="5.99792780354619">
        <ele>16.195533999999999</ele>
        <time>2015-12-31T23:02:32Z</time>
      </trkpt>
      <trkpt lat="51.607317561283708" lon="5.997919673100114">
        <ele>14.693203</ele>
        <time>2015-12-31T23:02:33Z</time>
      </trkpt>
      <trkpt lat="51.607138775289059" lon="5.997736779972911">
        <ele>13.96072</ele>
        <time>2015-12-31T23:02:34Z</time>
      </trkpt>
      <trkpt lat="51.606342578306794" lon="5.99527208134532">
        <ele>13.904909</ele>
        <time>2015-12-31T23:02:35Z</time>
      </trkpt>
      <trkpt lat="51.605918370187283" lon="5.994725078344345">
        <ele>13.742535999999999</ele>
        <time>2015-12-31T23:02:36Z</time>
      </trkpt>
      <trkpt lat="51.60574427805841" lon="5.993640124797821">
        <ele>14.511002</ele>
        <time>2015-12-31T23:02:37Z</time>
      </trkpt>
      <trkpt lat="51.605523666366935" lon="5.992843173444271">
        <ele>15.035163000000001</ele>
        <time>2015-12-31T23:02:38Z</time>
      </trkpt>
      <trkpt lat="51.606164211407304" lon="5.990650216117501">
        <ele>13.266226</ele>
        <time>2015-12-31T23:02:39Z</time>
      </trkpt>
      <trkpt lat="51.606167731806636" lon="5.989964576438069">
        <ele>14.066763999999999</ele>
        <time>2015-12-31T23:02:40Z</time>
      </trkpt>
      <trkpt lat="51.605722904205322" lon="5.989056481048465">
        <ele>14.692684</ele>
        <time>2015-12-31T23:02:41Z</time>
      </trkpt>
      <trkpt lat="51.605571191757917" lon="5.987971778959036">
        <ele>15.381356</ele>
        <time>2015-12-31T23:02:42Z</time>
      </trkpt>
      <trkpt lat="51.6040213778615" lon="5.983404312282801">
        <ele>15.189548</ele>
        <time>2015-12-31T23:02:43Z</time>
      </trkpt>
      <trkpt lat="51.603408828377724" lon="5.980112319812179">
        <ele>16.784168000000001</ele>
        <time>2015-12-31T23:02:44Z</time>
      </trkpt>
      <trkpt lat="51.602454800158739" lon="5.977682070806623">
        <ele>15.214301000000001</ele>
        <time>2015-12-31T23:02:45Z</time>
      </trkpt>
      <trkpt lat="51.587625620886683" lon="5.986075792461634">
        <ele>16.5837</ele>
        <time>2015-12-31T23:02:46Z</time>
      </trkpt>
      <trkpt lat="51.588395582512021" lon="5.989296622574329">
        <ele>16.676501999999999</ele>
        <time>2015-12-31T23:02:47Z</time>
      </trkpt>
      <trkpt lat="51.588662713766098" lon="5.989805236458778">
        <ele>15.403157</ele>
        <time>2015-12-31T23:02:48Z</time>
      </trkpt>
      <trkpt lat="51.592973107472062" lon="5.994985420256853">
        <ele>14.847847</ele>
        <time>2015-12-31T23:02:49Z</time>
      </trkpt>
      <trkpt lat="51.593175027519464" lon="5.995060270652175">
        <ele>14.214361</ele>
        <time>2015-12-31T23:02:50Z</time>
      </trkpt>
      <trkpt lat="51.59360233694315" lon="5.994993802160025">
        <ele>13.459156</ele>
        <time>2015-12-31T23:02:51Z</time>
      </trkpt>
      <trkpt lat="51.59423366189003" lon="5.994569258764386">
        <ele>15.966065</ele>
        <time>2015-12-31T23:02:52Z</time>
      </trkpt>
      <trkpt lat="51.594753004610538" lon="5.998436836525798">
        <ele>16.132185</ele>
        <time>2015-12-31T23:02:53Z</time>
      </trkpt>
      <trkpt lat="51.594998678192496" lon="5.998728778213263">
        <ele>16.275230000000001</ele>
        <time>2015-12-31T23:02:54Z</time>
      </trkpt>
      <trkpt lat="51.594929192215204" lon="5.999124739319086">
        <ele>16.378450000000001</ele>
        <time>2015-12-31T23:02:55Z</time>
      </trkpt>
      <trkpt lat="51.595100937411189" lon="6.000678492709994">
        <ele>14</ele>
        <time>2015-12-31T23:02:56Z</time>
      </trkpt>
      <trkpt lat="51.595370499417186" lon="6.000682096928358">
        <ele>14</ele>
        <time>2015-12-31T23:02:57Z</time>
      </trkpt>
      <trkpt lat="51.595930829644203" lon="6.00097831338644">
        <ele>17</ele>
        <time>2015-12-31T23:02:58Z</time>
      </trkpt>
      <trkpt lat="51.596018169075251" lon="6.001448538154364">
        <ele>14.418264000000001</ele>
        <time>2015-12-31T23:02:59Z</time>
      </trkpt>
      <trkpt lat="51.595857487991452" lon="6.00209578871727">
        <ele>14.501293</ele>
        <time>2015-12-31T23:03:00Z</time>
      </trkpt>
      <trkpt lat="51.595698734745383" lon="6.002382282167673">
        <ele>14.488841000000001</ele>
        <time>2015-12-31T23:03:01Z</time>
      </trkpt>
      <trkpt lat="51.596227968111634" lon="6.004301821812987">
        <ele>16.571327</ele>
        <time>2015-12-31T23:03:02Z</time>
      </trkpt>
      <trkpt lat="51.596401138231158" lon="6.0055669862777">
        <ele>16.515174999999999</ele>
        <time>2015-12-31T23:03:03Z</time>
      </trkpt>
      <trkpt lat="51.597163220867515" lon="6.005938220769167">
        <ele>15.579454</ele>
        <time>2015-12-31T23:03:04Z</time>
      </trkpt>
      <trkpt lat="51.597340665757656" lon="6.006373576819897">
        <ele>16.023039000000001</ele>
        <time>2015-12-31T23:03:05Z</time>
      </trkpt>
      <trkpt lat="51.597423730418086" lon="6.007673693820834">
        <ele>15.129640999999999</ele>
        <time>2015-12-31T23:03:06Z</time>
      </trkpt>
      <trkpt lat="51.597794629633427" lon="6.009771516546607">
        <ele>15.20613</ele>
        <time>2015-12-31T23:03:07Z</time>
      </trkpt>
      <trkpt lat="51.597003964707255" lon="6.010554637759924">
        <ele>16.087955000000001</ele>
        <time>2015-12-31T23:03:08Z</time>
      </trkpt>
      <trkpt lat="51.596779078245163" lon="6.010587578639388">
        <ele>16.242239000000001</ele>
        <time>2015-12-31T23:03:09Z</time>
      </trkpt>
    </trkseg>
  </trk>

</gpx>
